CMA CGM Verlaine — DASO — position and weather

sailwx.info

Track history (hours):
 
Tides and Currents Weather Stations Pressure Air Temp Water Temp Dewpoint Dewpoint Depression Visibility Wind Speed Wind Dir Waves Ship Positions

CMA CGM Verlaine

Last reported at 2015-Feb-04 21:28 UTC. Time now 2015-Feb-28 05:22 UTC.
Position N 01°55' E 102°21'.
Warning: this ship's position is 23 days out of date.

Length 300 m; beam 40 m; draft 14.5 m.

Type: Ship. MMSI: 211378820.

Date/timePositionNaut miles runAvg speedWind from/ knotsBaromVisibWave heightAir tempDewpointWater temp
2015-Feb-04 21:28N 01°55' E 102°21'1011.0
2015-Feb-04 20:33N 01°51' E 102°30'1511.4
2015-Feb-04 19:15N 01°45' E 102°43'68 9.9
2015-Feb-04 12:19N 01°09' E 103°42'7 9.2
2015-Feb-04 11:31N 01°11' E 103°49'8 8.3
2015-Feb-04 10:34N 01°15' E 103°56'2 1.4
2015-Feb-04 09:23N 01°16' E 103°55'0 0.1
2015-Feb-04 08:22N 01°16' E 103°55'0 0.1
2015-Feb-04 07:33N 01°16' E 103°55'0 0.0
2015-Feb-04 06:21N 01°16' E 103°55'0 0.1
2015-Feb-04 05:20N 01°16' E 103°55'0 0.1
2015-Feb-04 04:26N 01°16' E 103°55'0 0.1
2015-Feb-04 03:07N 01°16' E 103°55'0 0.0
2015-Feb-04 02:31N 01°16' E 103°55'0 0.0
2015-Feb-04 01:25N 01°16' E 103°55'0 0.0
2015-Feb-04 00:30N 01°16' E 103°55'0 0.0
2015-Feb-03 23:06N 01°16' E 103°55'0 0.0
2015-Feb-03 22:33N 01°16' E 103°55'0 0.0
2015-Feb-03 21:23N 01°16' E 103°55'0 0.0
2015-Feb-03 20:28N 01°16' E 103°55'0 0.0
2015-Feb-03 19:22N 01°16' E 103°55'0 0.0
2015-Feb-03 18:15N 01°16' E 103°55'0 0.0
2015-Feb-03 17:27N 01°16' E 103°55'0 0.0
2015-Feb-03 16:33N 01°16' E 103°55'0 0.0
2015-Feb-03 15:32N 01°16' E 103°55'0 0.0
2015-Feb-03 14:11N 01°16' E 103°55'0 0.0
2015-Feb-03 13:13N 01°16' E 103°55'0 0.0
2015-Feb-03 12:31N 01°16' E 103°55'0 0.1
2015-Feb-03 11:24N 01°16' E 103°55'0 0.1
2015-Feb-03 10:12N 01°16' E 103°55'0 0.1
2015-Feb-03 09:30N 01°16' E 103°55'0 0.0
2015-Feb-03 08:17N 01°16' E 103°55'0 0.0
2015-Feb-03 07:23N 01°16' E 103°55'0 0.1
2015-Feb-03 06:28N 01°16' E 103°55'0 0.1
2015-Feb-03 05:28N 01°16' E 103°55'0 0.0
2015-Feb-03 04:27N 01°16' E 103°55'0 0.0
2015-Feb-03 03:30N 01°16' E 103°55'0 0.1
2015-Feb-03 01:29N 01°16' E 103°55'0 0.1
2015-Feb-03 00:14N 01°16' E 103°55'7 6.7
2015-Feb-02 23:07N 01°12' E 103°48'5 1.2
2015-Feb-02 19:20N 01°16' E 103°46'0 0.0
2015-Feb-02 13:16N 01°16' E 103°46'0 0.0
2015-Feb-02 09:11N 01°16' E 103°46'0 0.0
2015-Feb-01 15:33N 01°16' E 103°46'0 0.0
2015-Feb-01 13:27N 01°16' E 103°46'0 0.0
2015-Feb-01 06:33N 01°16' E 103°46'0 0.1
2015-Feb-01 05:33N 01°16' E 103°46'2 1.7
2015-Feb-01 04:33N 01°15' E 103°47'3 3.2
2015-Feb-01 03:30N 01°12' E 103°49'5 5.2
2015-Feb-01 02:32N 01°14' E 103°54'  
Track history (hours):
 
Tides and Currents Weather Stations Pressure Air Temp Water Temp Dewpoint Dewpoint Depression Visibility Wind Speed Wind Dir Waves Ship Positions

CMA CGM Verlaine

Last reported at 2015-Feb-04 21:28 UTC. Time now 2015-Feb-28 05:22 UTC.
Position N 01°55' E 102°21'.
Warning: this ship's position is 23 days out of date.

Length 300 m; beam 40 m; draft 14.5 m.

Type: Ship. MMSI: 211378820.

Date/timePositionNaut miles runAvg speedWind from/ knotsBaromVisibWave heightAir tempDewpointWater temp
2015-Feb-04 21:28N 01°55' E 102°21'1011.0
2015-Feb-04 20:33N 01°51' E 102°30'1511.4
2015-Feb-04 19:15N 01°45' E 102°43'68 9.9
2015-Feb-04 12:19N 01°09' E 103°42'7 9.2
2015-Feb-04 11:31N 01°11' E 103°49'8 8.3
2015-Feb-04 10:34N 01°15' E 103°56'2 1.4
2015-Feb-04 09:23N 01°16' E 103°55'0 0.1
2015-Feb-04 08:22N 01°16' E 103°55'0 0.1
2015-Feb-04 07:33N 01°16' E 103°55'0 0.0
2015-Feb-04 06:21N 01°16' E 103°55'0 0.1
2015-Feb-04 05:20N 01°16' E 103°55'0 0.1
2015-Feb-04 04:26N 01°16' E 103°55'0 0.1
2015-Feb-04 03:07N 01°16' E 103°55'0 0.0
2015-Feb-04 02:31N 01°16' E 103°55'0 0.0
2015-Feb-04 01:25N 01°16' E 103°55'0 0.0
2015-Feb-04 00:30N 01°16' E 103°55'0 0.0
2015-Feb-03 23:06N 01°16' E 103°55'0 0.0
2015-Feb-03 22:33N 01°16' E 103°55'0 0.0
2015-Feb-03 21:23N 01°16' E 103°55'0 0.0
2015-Feb-03 20:28N 01°16' E 103°55'0 0.0
2015-Feb-03 19:22N 01°16' E 103°55'0 0.0
2015-Feb-03 18:15N 01°16' E 103°55'0 0.0
2015-Feb-03 17:27N 01°16' E 103°55'0 0.0
2015-Feb-03 16:33N 01°16' E 103°55'0 0.0
2015-Feb-03 15:32N 01°16' E 103°55'0 0.0
2015-Feb-03 14:11N 01°16' E 103°55'0 0.0
2015-Feb-03 13:13N 01°16' E 103°55'0 0.0
2015-Feb-03 12:31N 01°16' E 103°55'0 0.1
2015-Feb-03 11:24N 01°16' E 103°55'0 0.1
2015-Feb-03 10:12N 01°16' E 103°55'0 0.1
2015-Feb-03 09:30N 01°16' E 103°55'0 0.0
2015-Feb-03 08:17N 01°16' E 103°55'0 0.0
2015-Feb-03 07:23N 01°16' E 103°55'0 0.1
2015-Feb-03 06:28N 01°16' E 103°55'0 0.1
2015-Feb-03 05:28N 01°16' E 103°55'0 0.0
2015-Feb-03 04:27N 01°16' E 103°55'0 0.0
2015-Feb-03 03:30N 01°16' E 103°55'0 0.1
2015-Feb-03 01:29N 01°16' E 103°55'0 0.1
2015-Feb-03 00:14N 01°16' E 103°55'7 6.7
2015-Feb-02 23:07N 01°12' E 103°48'5 1.2
2015-Feb-02 19:20N 01°16' E 103°46'0 0.0
2015-Feb-02 13:16N 01°16' E 103°46'0 0.0
2015-Feb-02 09:11N 01°16' E 103°46'0 0.0
2015-Feb-01 15:33N 01°16' E 103°46'0 0.0
2015-Feb-01 13:27N 01°16' E 103°46'0 0.0
2015-Feb-01 06:33N 01°16' E 103°46'0 0.1
2015-Feb-01 05:33N 01°16' E 103°46'2 1.7
2015-Feb-01 04:33N 01°15' E 103°47'3 3.2
2015-Feb-01 03:30N 01°12' E 103°49'5 5.2
2015-Feb-01 02:32N 01°14' E 103°54'  

Dump ship's entire track history